Time;durP1;ratioP1;P1;durP2;ratioP2;P2;SDS_P1;SDS_P2;PMS_P1;PMS_P2;Temp;Humidity;BMP_temperature;BMP_pressure;BME280_temperature;BME280_humidity;BME280_pressure;Samples;Min_cycle;Max_cycle;Signal;HPM_P1;HPM_P2
2023/02/28 00:01:37;;;;;;;4.60;3.95;;;;;;;-0.17;80.55;101418.69;4894806;29;20040;-91
2023/02/28 00:04:13;;;;;;;4.72;3.80;;;;;;;0.05;81.30;101466.69;4889627;29;20390;-92
2023/02/28 00:06:44;;;;;;;8.20;4.25;;;;;;;0.41;82.04;101541.84;4894100;29;20041;-95
2023/02/28 00:09:29;;;;;;;5.78;4.13;;;;;;;0.34;82.81;101536.53;4883842;29;20048;-90
2023/02/28 00:12:00;;;;;;;6.28;4.53;;;;;;;0.12;84.10;101516.28;4891871;29;20048;-93
2023/02/28 00:14:30;;;;;;;6.00;4.28;;;;;;;-0.42;84.29;101417.47;4894110;29;20056;-93
2023/02/28 00:17:21;;;;;;;5.13;4.10;;;;;;;0.09;84.61;101520.56;4882186;29;20040;-92
2023/02/28 00:20:01;;;;;;;4.47;3.92;;;;;;;0.19;84.30;101544.16;4889615;29;20067;-89
2023/02/28 00:22:34;;;;;;;6.03;4.45;;;;;;;0.17;85.93;101543.25;4900394;29;20037;-90
2023/02/28 00:25:14;;;;;;;5.28;4.38;;;;;;;0.15;86.03;101537.16;4902969;29;20073;-90
2023/02/28 00:27:51;;;;;;;6.82;4.40;;;;;;;-0.26;86.66;101474.09;4900547;29;20048;-89
2023/02/28 00:30:22;;;;;;;4.78;4.38;;;;;;;-0.19;87.15;101498.50;4894516;29;20121;-93
2023/02/28 00:32:55;;;;;;;6.38;4.60;;;;;;;-0.65;88.20;101427.56;4894079;29;20072;-94
2023/02/28 00:35:25;;;;;;;5.10;4.10;;;;;;;0.03;88.40;101547.41;4877156;29;20048;-91
2023/02/28 00:38:06;;;;;;;5.38;4.50;;;;;;;0.04;88.81;101553.47;4888834;29;20053;-92
2023/02/28 00:40:39;;;;;;;6.80;4.63;;;;;;;-0.02;89.20;101549.09;4902809;29;20079;-92
2023/02/28 00:43:12;;;;;;;6.97;4.50;;;;;;;-0.04;89.83;101542.97;4898857;29;20041;-90
2023/02/28 00:45:42;;;;;;;6.63;4.72;;;;;;;-0.72;90.45;101438.72;4897486;29;20053;-93
2023/02/28 00:48:16;;;;;;;6.22;4.25;;;;;;;-0.57;90.95;101464.09;4883591;29;20067;-91
2023/02/28 00:50:44;;;;;;;7.75;5.25;;;;;;;-0.50;91.73;101472.03;4901734;29;20069;-90
2023/02/28 00:53:27;;;;;;;5.60;4.70;;;;;;;-0.08;91.14;101546.38;4895611;29;20077;-90
2023/02/28 00:55:55;;;;;;;6.18;4.65;;;;;;;-0.12;91.41;101542.84;4907392;29;20038;-89
2023/02/28 00:58:28;;;;;;;6.25;4.05;;;;;;;-0.52;92.29;101471.13;4936440;29;20051;-90
2023/02/28 01:01:07;;;;;;;7.15;4.80;;;;;;;-0.13;92.22;101541.09;4934458;29;20084;-88
2023/02/28 01:03:35;;;;;;;8.15;4.85;;;;;;;-0.21;93.43;101541.84;4932426;29;20060;-89
2023/02/28 01:06:03;;;;;;;7.50;4.97;;;;;;;-0.87;94.10;101433.28;4920349;29;20047;-90
2023/02/28 01:08:32;;;;;;;7.70;4.90;;;;;;;-0.28;94.84;101547.78;4919328;29;20103;-91
2023/02/28 01:11:11;;;;;;;7.93;5.03;;;;;;;-0.27;96.46;101550.44;4934065;29;20051;-90
2023/02/28 01:13:44;;;;;;;6.35;4.75;;;;;;;-0.30;96.62;101539.09;4922424;29;20051;-90
2023/02/28 01:16:15;;;;;;;6.00;4.93;;;;;;;-0.48;97.01;101495.47;4940438;29;20048;-91
2023/02/28 01:18:45;;;;;;;6.13;4.87;;;;;;;-0.21;97.20;101541.84;4935148;29;20051;-90
2023/02/28 01:21:17;;;;;;;6.80;5.50;;;;;;;-0.37;98.27;101515.59;4937017;29;20472;-90
2023/02/28 01:23:46;;;;;;;8.43;5.15;;;;;;;-0.68;99.23;101460.44;4936551;29;20047;-89
2023/02/28 01:26:23;;;;;;;7.85;5.38;;;;;;;-0.32;99.76;101528.69;4937835;29;20036;-89
2023/02/28 01:28:53;;;;;;;7.15;5.57;;;;;;;-0.41;99.70;101512.91;4934558;29;20076;-89
2023/02/28 01:31:37;;;;;;;9.32;4.97;;;;;;;-0.47;100.00;101502.38;4934330;29;20064;-89
2023/02/28 01:34:06;;;;;;;6.00;5.00;;;;;;;-0.95;100.00;101421.88;4937726;29;20076;-90
2023/02/28 01:36:36;;;;;;;6.88;5.15;;;;;;;-1.00;100.00;101408.81;4936887;29;20044;-93
2023/02/28 01:39:08;;;;;;;6.15;5.00;;;;;;;-1.09;100.00;101406.03;4917067;29;20052;-90
2023/02/28 01:41:44;;;;;;;7.88;5.30;;;;;;;-0.59;100.00;101492.66;4927117;29;20048;-92
2023/02/28 01:44:52;;;;;;;5.72;4.80;;;;;;;-0.43;100.00;101525.88;4932556;29;20048;-90
2023/02/28 01:47:22;;;;;;;8.15;4.78;;;;;;;-0.47;100.00;101518.00;4938097;29;20072;-88
2023/02/28 01:49:52;;;;;;;6.45;5.32;;;;;;;-0.52;100.00;101517.06;4941230;29;20044;-89
2023/02/28 01:52:24;;;;;;;7.72;5.05;;;;;;;-0.63;100.00;101493.47;4938520;29;20028;-91
2023/02/28 01:57:56;;;;;;;8.45;5.57;;;;;;;-1.18;100.00;101406.78;4945258;29;20067;-91
2023/02/28 02:00:40;;;;;;;7.53;5.40;;;;;;;-1.28;100.00;101404.88;4959247;29;20068;-90
2023/02/28 02:03:26;;;;;;;7.00;5.32;;;;;;;-0.59;100.00;101512.59;4945280;29;20051;-90
2023/02/28 02:06:15;;;;;;;7.45;5.75;;;;;;;-1.01;100.00;101442.56;4954588;29;20099;-91
2023/02/28 02:08:52;;;;;;;8.57;5.75;;;;;;;-0.87;100.00;101461.88;4961051;29;20042;-91
2023/02/28 02:11:29;;;;;;;7.63;5.93;;;;;;;-0.80;100.00;101488.03;4952067;28;20084;-89
2023/02/28 02:14:36;;;;;;;4.80;4.22;;;;;;;-0.68;100.00;101509.88;4956951;28;20045;-89
2023/02/28 02:17:27;;;;;;;8.18;6.45;;;;;;;-0.69;100.00;101509.00;4957786;28;20046;-89
2023/02/28 02:20:41;;;;;;;7.90;5.57;;;;;;;-1.43;100.00;101376.03;4954728;28;20119;-88
2023/02/28 02:23:51;;;;;;;9.80;5.43;;;;;;;-0.76;100.00;101501.94;4934508;29;20047;-90
2023/02/28 02:26:40;;;;;;;7.43;5.53;;;;;;;-0.83;100.00;101481.88;4952416;29;20044;-90
2023/02/28 02:29:45;;;;;;;7.53;6.28;;;;;;;-0.68;100.00;101507.28;4937587;29;20052;-90
2023/02/28 02:32:57;;;;;;;7.82;5.57;;;;;;;-0.78;100.00;101501.03;4947916;29;20497;-93
2023/02/28 02:35:39;;;;;;;7.10;4.97;;;;;;;-0.80;100.00;101503.63;4931357;29;20051;-92
2023/02/28 02:38:35;;;;;;;7.78;5.80;;;;;;;-0.81;100.00;101508.81;4950492;29;20035;-91
2023/02/28 02:41:43;;;;;;;7.38;5.32;;;;;;;-0.84;100.00;101511.34;4932547;29;20122;-92
2023/02/28 02:44:42;;;;;;;6.45;5.47;;;;;;;-1.00;100.00;101485.94;4957076;29;20055;-89
2023/02/28 02:47:25;;;;;;;6.72;5.15;;;;;;;-0.86;100.00;101510.44;4950358;29;20043;-91
2023/02/28 02:50:05;;;;;;;8.23;5.40;;;;;;;-0.90;100.00;101509.50;4945013;29;20043;-88
2023/02/28 02:52:44;;;;;;;8.55;5.32;;;;;;;-1.34;100.00;101438.53;4955556;29;20071;-89
2023/02/28 02:55:22;;;;;;;8.57;5.13;;;;;;;-1.46;100.00;101434.00;4938775;29;20051;-91
2023/02/28 02:58:07;;;;;;;7.35;5.40;;;;;;;-0.99;100.00;101511.06;4943377;29;20067;-92
2023/02/28 03:00:52;;;;;;;7.20;5.13;;;;;;;-1.24;100.00;101468.16;4947634;29;20051;-91
2023/02/28 03:03:30;;;;;;;8.13;5.07;;;;;;;-1.00;100.00;101517.13;4950357;29;20048;-92
2023/02/28 03:06:05;;;;;;;6.90;5.10;;;;;;;-1.35;100.00;101462.78;4931789;29;20054;-90
2023/02/28 03:09:17;;;;;;;9.05;5.20;;;;;;;-1.50;100.00;101441.72;4936656;29;20108;-93
2023/02/28 03:12:21;;;;;;;8.07;5.35;;;;;;;-1.44;100.00;101455.69;4942191;29;20055;-94
2023/02/28 03:15:22;;;;;;;7.32;4.93;;;;;;;-1.29;100.00;101482.81;4948755;29;20079;-92
2023/02/28 03:18:24;;;;;;;7.88;5.55;;;;;;;-1.15;100.00;101503.00;4943455;29;20044;-92
2023/02/28 03:21:49;;;;;;;6.97;4.88;;;;;;;-1.22;100.00;101484.66;4942813;29;20076;-91
2023/02/28 03:24:48;;;;;;;7.05;4.80;;;;;;;-1.55;100.00;101448.53;4922100;29;20075;-92
2023/02/28 03:28:11;;;;;;;7.32;5.32;;;;;;;-1.58;100.00;101444.19;4944218;29;20055;-92
2023/02/28 03:31:01;;;;;;;10.63;5.07;;;;;;;-1.32;100.00;101491.41;4950906;29;20186;-91
2023/02/28 03:33:54;;;;;;;6.63;5.10;;;;;;;-1.27;100.00;101510.59;4953790;29;20050;-91
2023/02/28 03:36:29;;;;;;;8.88;5.05;;;;;;;-1.68;100.00;101433.56;4946024;29;20036;-94
2023/02/28 03:39:08;;;;;;;5.47;4.55;;;;;;;-1.40;100.00;101492.97;4952575;29;20047;-89
2023/02/28 03:41:55;;;;;;;8.80;5.00;;;;;;;-1.79;100.00;101429.06;4952566;29;20044;-90
2023/02/28 03:44:38;;;;;;;7.57;5.40;;;;;;;-1.58;100.00;101477.94;4956043;29;20079;-89
2023/02/28 03:47:36;;;;;;;7.15;5.10;;;;;;;-1.42;100.00;101515.47;4950813;29;20044;-92
2023/02/28 03:50:46;;;;;;;7.43;5.55;;;;;;;-1.45;100.00;101500.72;4947445;29;20123;-90
2023/02/28 03:53:39;;;;;;;8.85;5.22;;;;;;;-1.48;100.00;101511.03;4944549;29;20046;-91
2023/02/28 03:56:32;;;;;;;6.35;5.22;;;;;;;-1.47;100.00;101501.53;4938184;29;20048;-91
2023/02/28 03:59:32;;;;;;;7.22;5.03;;;;;;;-1.48;100.00;101511.03;4944469;29;20031;-95
2023/02/28 04:02:08;;;;;;;7.57;5.55;;;;;;;-1.50;100.00;101501.44;4937915;29;20436;-92
2023/02/28 04:04:52;;;;;;;7.65;5.32;;;;;;;-1.96;100.00;101413.97;4942196;29;20051;-90
2023/02/28 04:07:35;;;;;;;8.73;5.57;;;;;;;-1.60;100.00;101478.75;4949645;29;20091;-92
2023/02/28 04:10:18;;;;;;;6.72;5.10;;;;;;;-1.45;100.00;101499.84;4934488;29;20067;-94
2023/02/28 04:13:12;;;;;;;7.65;5.60;;;;;;;-2.06;100.00;101415.53;4952381;29;20043;-92
2023/02/28 04:15:50;;;;;;;7.45;5.38;;;;;;;-1.43;100.00;101509.41;4948383;29;20110;-90
2023/02/28 04:18:31;;;;;;;6.82;5.30;;;;;;;-1.94;100.00;101430.47;4925820;29;20048;-93
2023/02/28 04:21:07;;;;;;;7.85;5.38;;;;;;;-1.86;100.00;101445.34;4902052;29;20044;-93
2023/02/28 04:23:50;;;;;;;6.57;5.50;;;;;;;-2.11;100.00;101406.75;4942797;29;20055;-92
2023/02/28 04:26:35;;;;;;;7.35;5.95;;;;;;;-1.89;100.00;101441.81;4942211;29;20048;-92
2023/02/28 04:29:13;;;;;;;7.00;5.55;;;;;;;-1.82;100.00;101457.53;4934779;29;20055;-92
2023/02/28 04:32:04;;;;;;;7.75;6.00;;;;;;;-1.57;100.00;101515.16;4937440;29;20470;-89
2023/02/28 04:34:50;;;;;;;6.68;5.50;;;;;;;-1.81;100.00;101472.28;4940918;29;20083;-92
2023/02/28 04:37:27;;;;;;;;;;;;;;;-1.57;100.00;101510.84;4926792;29;20047;-91
2023/02/28 04:40:08;;;;;;;9.80;5.78;;;;;;;-2.34;100.00;101379.44;4935560;29;19954;-91
2023/02/28 04:42:40;;;;;;;9.98;5.80;;;;;;;-1.49;100.00;101511.00;4946574;29;20091;-91
2023/02/28 04:45:32;;;;;;;8.52;6.05;;;;;;;-1.46;100.00;101509.34;4947353;29;20056;-93
2023/02/28 04:48:14;;;;;;;9.85;5.82;;;;;;;-1.80;100.00;101445.47;4933801;29;20044;-90
2023/02/28 04:51:12;;;;;;;8.65;5.80;;;;;;;-1.37;100.00;101513.81;4948170;29;20047;-92
2023/02/28 04:53:48;;;;;;;9.55;6.15;;;;;;;-1.48;100.00;101478.97;4948764;29;20103;-90
2023/02/28 04:56:40;;;;;;;8.73;5.50;;;;;;;-1.42;100.00;101474.75;4945777;29;20051;-91
2023/02/28 05:02:43;;;;;;;10.45;5.75;;;;;;;-1.24;100.00;101507.13;4997932;23;20047;-89
2023/02/28 05:08:12;;;;;;;8.70;6.13;;;;;;;-1.23;100.00;101508.88;4916283;29;20048;-91
2023/02/28 05:10:54;;;;;;;8.30;5.68;;;;;;;-1.53;100.00;101452.03;4917200;29;20060;-91
2023/02/28 05:13:31;;;;;;;7.03;5.65;;;;;;;-1.18;100.00;101505.53;4992577;23;20039;-92
2023/02/28 05:16:01;;;;;;;7.80;5.40;;;;;;;-1.10;100.00;101509.13;4952997;29;20434;-94
2023/02/28 05:18:46;;;;;;;7.28;5.10;;;;;;;-1.27;100.00;101474.19;4927507;29;20048;-94
2023/02/28 05:21:33;;;;;;;6.88;5.05;;;;;;;-1.28;100.00;101482.84;4936353;29;20048;-94
2023/02/28 05:24:22;;;;;;;6.35;4.72;;;;;;;-1.29;100.00;101475.88;4918225;29;20040;-95
2023/02/28 05:26:56;;;;;;;8.00;4.93;;;;;;;-1.27;100.00;101479.41;4939662;29;20059;-95
2023/02/28 05:29:27;;;;;;;5.35;4.65;;;;;;;-1.00;100.00;101527.50;4933830;29;20086;-92
2023/02/28 05:32:12;;;;;;;8.45;5.65;;;;;;;-1.44;100.00;101442.72;4935510;29;20063;-95
2023/02/28 05:34:53;;;;;;;6.20;5.13;;;;;;;-0.95;100.00;101525.88;4936874;29;20103;-93
2023/02/28 05:37:44;;;;;;;7.43;5.00;;;;;;;-1.22;100.00;101474.25;4932625;29;20050;-94
2023/02/28 05:40:31;;;;;;;7.07;5.40;;;;;;;-1.65;100.00;101413.72;4946278;29;20054;-94
2023/02/28 05:43:45;;;;;;;7.40;5.20;;;;;;;-1.08;100.00;101529.97;4939339;29;20040;-96
2023/02/28 05:46:17;;;;;;;5.43;4.65;;;;;;;-1.10;100.00;101524.72;4936887;29;20043;-93
2023/02/28 05:49:05;;;;;;;7.68;5.28;;;;;;;-1.53;100.00;101460.69;4937569;29;20039;-95
2023/02/28 05:51:59;;;;;;;6.22;4.50;;;;;;;-1.52;100.00;101459.84;4935636;29;20047;-95
2023/02/28 05:54:33;;;;;;;6.45;4.68;;;;;;;-1.51;100.00;101474.59;4926358;29;20059;-95
2023/02/28 05:57:07;;;;;;;7.63;4.63;;;;;;;-1.77;100.00;101419.56;4931763;29;20059;-93
2023/02/28 05:59:52;;;;;;;7.30;4.50;;;;;;;-1.52;100.00;101470.25;4943548;29;20660;-95
2023/02/28 06:02:35;;;;;;;6.70;4.32;;;;;;;-1.12;100.00;101534.25;4944326;29;20048;-93
2023/02/28 06:05:15;;;;;;;7.93;4.97;;;;;;;-1.17;100.00;101535.88;4954973;28;20058;-95
2023/02/28 06:08:00;;;;;;;5.97;4.55;;;;;;;-1.37;100.00;101508.63;4954679;29;20056;-93
2023/02/28 06:10:40;;;;;;;6.40;4.82;;;;;;;-1.23;100.00;101543.56;4945977;29;20066;-94
2023/02/28 06:13:29;;;;;;;8.35;4.70;;;;;;;-1.39;100.00;101505.13;4939301;29;20048;-92
2023/02/28 06:16:31;;;;;;;7.28;4.78;;;;;;;-1.29;100.00;101534.78;4940104;29;20055;-94
2023/02/28 06:19:28;;;;;;;7.20;4.47;;;;;;;-1.51;100.00;101508.38;4952348;29;20032;-93
2023/02/28 06:22:28;;;;;;;6.13;4.30;;;;;;;-1.71;100.00;101464.66;4934735;29;20457;-93
2023/02/28 06:25:36;;;;;;;8.15;4.45;;;;;;;-1.31;100.00;101544.25;4948026;29;20036;-94
2023/02/28 06:28:26;;;;;;;8.73;4.63;;;;;;;-1.37;100.00;101539.81;5257435;23;20585;-95
2023/02/28 06:31:21;;;;;;;7.13;4.63;;;;;;;-1.38;100.00;101556.25;4910110;29;20024;-92
2023/02/28 06:34:25;;;;;;;6.13;4.28;;;;;;;-1.97;100.00;101446.84;4902667;29;20085;-92
2023/02/28 06:37:09;;;;;;;5.45;4.18;;;;;;;-1.46;100.00;101524.94;4913296;29;20043;-93
2023/02/28 06:40:16;;;;;;;9.45;4.90;;;;;;;-1.26;100.00;101556.47;4908560;29;20028;-95
2023/02/28 06:45:56;;;;;;;6.40;4.55;;;;;;;-1.81;100.00;101445.44;4910936;29;20052;-94
2023/02/28 06:48:58;;;;;;;6.93;4.60;;;;;;;-1.51;100.00;101499.69;4885022;29;20045;-93
2023/02/28 06:52:12;;;;;;;7.68;4.57;;;;;;;-1.13;100.00;101560.22;5159527;23;20055;-94
2023/02/28 06:55:54;;;;;;;8.45;5.28;;;;;;;-1.15;100.00;101554.97;4939984;29;20047;-92
2023/02/28 07:04:44;;;;;;;5.85;4.20;;;;;;;-1.26;98.00;101501.06;4918818;29;20052;-93
2023/02/28 07:07:44;;;;;;;7.25;4.32;;;;;;;-1.13;97.62;101524.69;4989163;23;20060;-94
2023/02/28 07:10:34;;;;;;;5.80;4.53;;;;;;;-1.39;96.70;101484.34;4937643;29;20028;-94
2023/02/28 07:14:17;;;;;;;;;;;;;;;;;;;;;
2023/02/28 07:17:27;;;;;;;7.80;4.77;;;;;;;-1.13;94.95;101505.63;4908843;29;20096;-94
2023/02/28 07:20:24;;;;;;;7.43;5.07;;;;;;;-1.26;95.88;101469.88;5122659;23;20060;-93
2023/02/28 07:24:06;;;;;;;;;;;;;;;;;;;;;
2023/02/28 07:27:11;;;;;;;7.03;4.63;;;;;;;-0.32;93.16;101580.72;5186328;23;20047;-93
2023/02/28 07:30:58;;;;;;;9.98;5.15;;;;;;;-0.45;90.47;101517.19;4931148;29;20064;-96
2023/02/28 07:34:11;;;;;;;10.30;5.25;;;;;;;-0.05;88.77;101531.69;4940549;29;20079;-93
2023/02/28 07:37:09;;;;;;;;;;;;;;;;;;;;;
2023/02/28 07:40:38;;;;;;;6.40;4.93;;;;;;;0.17;82.99;101483.34;4911535;29;20397;-95
2023/02/28 07:43:21;;;;;;;6.38;4.32;;;;;;;0.95;82.44;101567.66;4894906;29;20112;-95
2023/02/28 07:46:18;;;;;;;10.55;5.28;;;;;;;0.60;80.34;101466.50;4925728;29;20036;-93
2023/02/28 07:49:27;;;;;;;10.15;5.22;;;;;;;1.51;77.60;101577.78;4930527;29;20035;-95
2023/02/28 07:52:25;;;;;;;8.93;5.10;;;;;;;1.74;76.52;101582.34;4936062;29;20080;-96
2023/02/28 07:55:33;;;;;;;8.73;5.20;;;;;;;1.85;74.43;101522.38;4922715;29;20044;-94
2023/02/28 07:58:25;;;;;;;7.60;5.30;;;;;;;2.05;70.92;101545.97;5007349;23;20053;-94
2023/02/28 08:01:45;;;;;;;9.68;5.60;;;;;;;1.77;70.12;101498.78;4936816;29;20029;-94
2023/02/28 08:04:35;;;;;;;9.52;5.82;;;;;;;1.83;71.05;101524.09;4944505;29;20044;-92
2023/02/28 08:08:02;;;;;;;7.65;5.60;;;;;;;1.69;70.00;101486.56;4935932;29;20032;-94
2023/02/28 08:14:30;;;;;;;7.28;4.93;;;;;;;2.22;67.15;101583.53;5670975;23;20046;-94
2023/02/28 08:18:22;;;;;;;7.32;4.90;;;;;;;1.78;66.13;101528.41;5030971;23;20437;-92
2023/02/28 08:22:03;;;;;;;7.85;5.35;;;;;;;2.11;64.63;101593.94;5670435;23;20262;31
2023/02/28 08:25:04;;;;;;;6.00;4.40;;;;;;;1.81;62.82;101509.25;4893238;29;20059;-94
2023/02/28 08:34:27;;;;;;;4.72;4.13;;;;;;;2.99;56.80;101588.25;4928770;29;20071;-95
2023/02/28 08:40:22;;;;;;;5.57;4.10;;;;;;;3.01;55.28;101581.28;5172985;23;20163;-93
2023/02/28 08:43:09;;;;;;;6.32;4.25;;;;;;;2.54;54.11;101486.09;4856898;29;20045;-92
2023/02/28 08:45:54;;;;;;;4.97;4.10;;;;;;;2.79;53.77;101529.78;4856369;29;20073;-92
2023/02/28 08:48:38;;;;;;;5.95;4.20;;;;;;;2.27;53.71;101499.94;4871163;29;20043;-94
2023/02/28 08:51:29;;;;;;;7.50;4.40;;;;;;;2.22;54.67;101533.88;4872417;29;20037;-94
2023/02/28 08:54:19;;;;;;;6.10;3.88;;;;;;;2.04;54.75;101531.19;4878867;29;20038;-93
2023/02/28 08:57:22;;;;;;;6.35;4.25;;;;;;;2.28;54.95;101583.59;4874694;29;20066;-92
2023/02/28 09:00:26;;;;;;;8.30;4.47;;;;;;;2.30;55.22;101592.31;4867967;29;20049;-94
2023/02/28 09:03:50;;;;;;;5.50;3.67;;;;;;;2.43;55.18;101588.03;4868775;29;20037;-93
2023/02/28 09:06:55;;;;;;;7.45;4.32;;;;;;;2.54;55.24;101603.75;4863102;29;20099;-96
2023/02/28 09:09:53;;;;;;;6.93;4.15;;;;;;;2.30;53.66;101526.97;4865878;29;20050;-90
2023/02/28 09:12:41;;;;;;;7.70;4.82;;;;;;;2.30;53.96;101518.25;4871444;29;20084;-90
2023/02/28 09:15:27;;;;;;;8.13;4.80;;;;;;;2.75;52.47;101582.94;4923980;29;20088;-94
2023/02/28 09:18:13;;;;;;;6.78;4.43;;;;;;;2.72;52.50;101562.00;4918475;29;20045;-93
2023/02/28 09:21:24;;;;;;;5.80;4.10;;;;;;;2.97;52.96;101595.25;4923907;29;20044;-93
2023/02/28 09:25:01;;;;;;;6.47;4.35;;;;;;;3.12;51.53;101579.59;4920701;29;20044;-95
2023/02/28 09:28:06;;;;;;;;;;;;;;;;;;;;;
2023/02/28 09:31:32;;;;;;;6.70;4.82;;;;;;;3.03;51.04;101574.31;4864253;29;20052;-92
2023/02/28 09:34:17;;;;;;;6.60;4.22;;;;;;;2.91;50.73;101545.50;4872944;29;20109;-94
2023/02/28 09:37:02;;;;;;;6.13;3.83;;;;;;;2.73;50.67;101485.28;4868872;29;20050;-95
2023/02/28 09:39:48;;;;;;;5.22;4.15;;;;;;;3.40;49.39;101577.00;4850152;29;20172;-94
2023/02/28 09:42:34;;;;;;;5.88;3.72;;;;;;;3.11;48.59;101508.91;4850868;29;20060;-91
2023/02/28 09:45:43;;;;;;;5.50;4.30;;;;;;;3.05;48.72;101495.81;4840384;29;20140;-93
2023/02/28 09:48:35;;;;;;;5.45;4.25;;;;;;;3.60;48.22;101572.66;4854366;29;20080;-93
2023/02/28 09:52:08;;;;;;;8.15;4.15;;;;;;;3.61;48.31;101568.28;4854505;29;20061;-92
2023/02/28 09:55:51;;;;;;;6.60;4.38;;;;;;;3.79;47.56;101574.38;4854491;29;20030;-93
2023/02/28 09:59:16;;;;;;;6.13;4.55;;;;;;;3.91;46.55;101572.66;4850863;29;20080;-92
2023/02/28 10:02:20;;;;;;;6.68;4.30;;;;;;;3.73;46.15;101565.66;4839724;29;20045;-93
2023/02/28 10:11:22;;;;;;;5.60;4.72;;;;;;;3.61;45.88;101484.47;5146348;23;20044;-91
2023/02/28 10:17:13;;;;;;;6.10;4.57;;;;;;;4.51;46.03;101579.50;4976733;23;20055;-94
2023/02/28 10:20:13;;;;;;;6.05;4.40;;;;;;;4.20;44.45;101486.97;4929459;29;20099;-90
2023/02/28 10:26:23;;;;;;;5.85;4.40;;;;;;;4.55;44.60;101550.63;5068453;23;20044;-93
2023/02/28 10:30:00;;;;;;;6.32;4.40;;;;;;;4.55;43.64;101521.78;4902549;29;20037;-94
2023/02/28 10:33:05;;;;;;;;;;;;;;;4.99;42.52;101575.78;4915774;29;20033;-93
2023/02/28 10:36:10;;;;;;;6.47;4.50;;;;;;;4.68;42.49;101516.47;4921525;29;19911;-92
2023/02/28 10:39:01;;;;;;;7.93;5.40;;;;;;;4.36;42.75;101472.91;5170969;23;20044;-93
2023/02/28 10:41:49;;;;;;;6.33;4.40;;;;;;;4.73;41.70;101520.81;4921118;29;20037;-92
2023/02/28 10:45:23;;;;;;;7.10;4.60;;;;;;;5.19;42.46;101565.19;4910535;29;20044;-92
2023/02/28 10:48:44;;;;;;;6.00;4.55;;;;;;;5.34;41.37;101572.09;4896711;29;20033;-92
2023/02/28 10:54:37;;;;;;;7.70;4.45;;;;;;;5.40;40.74;101530.00;4989171;23;20066;-93
2023/02/28 10:57:36;;;;;;;5.78;4.47;;;;;;;5.68;40.25;101576.19;4921630;29;20040;-92
2023/02/28 11:01:00;;;;;;;6.78;4.32;;;;;;;5.54;40.21;101562.28;4929822;29;20253;-95
2023/02/28 11:04:02;;;;;;;7.32;4.18;;;;;;;4.77;41.53;101490.16;4916060;29;20071;-93
2023/02/28 11:07:30;;;;;;;6.35;4.13;;;;;;;4.94;41.06;101543.44;4929902;29;20658;-93
2023/02/28 11:10:34;;;;;;;7.68;4.68;;;;;;;4.51;41.43;101493.81;5221437;23;20049;-91
2023/02/28 11:13:50;;;;;;;7.82;4.50;;;;;;;5.09;41.63;101566.97;4999003;23;20155;-93
2023/02/28 11:16:54;;;;;;;7.20;4.40;;;;;;;5.16;40.92;101560.81;4932520;29;20036;-93
2023/02/28 11:20:03;;;;;;;6.57;4.30;;;;;;;4.96;40.71;101549.56;4924485;29;20048;-91
2023/02/28 11:23:01;;;;;;;7.47;4.03;;;;;;;4.32;41.11;101455.44;4926537;29;20044;-92
2023/02/28 11:26:48;;;;;;;5.13;4.30;;;;;;;4.54;41.32;101509.56;4926493;29;20047;-95
2023/02/28 11:29:52;;;;;;;7.00;4.43;;;;;;;4.36;41.79;101486.03;4913673;29;20083;-93
2023/02/28 11:32:31;;;;;;;6.00;4.43;;;;;;;4.70;42.60;101540.97;4929349;29;20052;-92
2023/02/28 11:35:34;;;;;;;6.22;4.53;;;;;;;4.57;42.60;101545.34;4919037;29;20055;-94
2023/02/28 11:38:17;;;;;;;7.13;4.93;;;;;;;4.37;43.46;101540.22;4924006;29;20693;-94
2023/02/28 11:41:15;;;;;;;7.55;5.18;;;;;;;4.09;43.87;101546.41;4923536;29;20132;-94
2023/02/28 11:44:41;;;;;;;7.65;4.90;;;;;;;3.89;44.41;101530.72;4902467;29;20056;-95
2023/02/28 11:48:01;;;;;;;7.75;5.05;;;;;;;4.07;43.33;101543.78;4912952;29;20043;-94
2023/02/28 11:51:20;;;;;;;6.82;5.40;;;;;;;4.13;43.08;101469.50;4926369;29;20044;-94
2023/02/28 11:54:34;;;;;;;8.30;5.35;;;;;;;4.76;42.45;101533.03;4922871;29;20063;-92
2023/02/28 11:58:01;;;;;;;7.60;5.45;;;;;;;4.68;42.67;101477.13;4927938;29;20040;-91
2023/02/28 12:01:08;;;;;;;7.60;5.50;;;;;;;5.21;42.08;101531.88;4924638;29;20044;-93
2023/02/28 12:04:28;;;;;;;7.82;5.90;;;;;;;5.24;42.05;101532.75;4932246;29;20047;-94
2023/02/28 12:08:05;;;;;;;8.18;5.85;;;;;;;5.25;41.24;101534.50;4934708;29;20047;-91
2023/02/28 12:11:26;;;;;;;6.72;5.45;;;;;;;5.17;41.77;101519.69;4934163;29;20160;-93
2023/02/28 12:15:03;;;;;;;7.00;5.20;;;;;;;5.27;41.64;101531.84;4935676;29;20089;-92
2023/02/28 12:18:26;;;;;;;7.22;5.47;;;;;;;5.38;41.55;101537.03;4932493;29;20101;-93
2023/02/28 12:21:29;;;;;;;6.97;5.57;;;;;;;5.48;41.52;101530.84;4934818;29;20043;-91
2023/02/28 12:24:56;;;;;;;6.97;5.45;;;;;;;5.66;40.73;101517.53;4933726;29;20048;-93
2023/02/28 12:27:54;;;;;;;7.53;5.95;;;;;;;5.39;41.01;101462.59;4924981;29;20143;-92
2023/02/28 12:31:10;;;;;;;9.73;6.10;;;;;;;5.35;40.90;101453.03;4931788;29;20040;-92
2023/02/28 12:34:12;;;;;;;8.40;6.15;;;;;;;5.43;40.68;101477.44;4938029;29;20084;-93
2023/02/28 12:37:06;;;;;;;8.57;6.05;;;;;;;5.42;41.07;101475.69;4900738;29;20036;-91
2023/02/28 12:40:16;;;;;;;10.02;5.78;;;;;;;5.77;41.00;101513.06;4934613;29;20045;-93
2023/02/28 12:43:26;;;;;;;9.48;6.47;;;;;;;5.53;40.85;101437.06;4919828;29;20064;-93
2023/02/28 12:46:23;;;;;;;8.05;6.25;;;;;;;5.94;40.68;101512.91;4928590;29;20061;-92
2023/02/28 12:49:33;;;;;;;8.57;6.45;;;;;;;6.02;40.05;101511.06;4936848;29;20032;-92
2023/02/28 12:53:11;;;;;;;8.70;6.20;;;;;;;5.52;40.81;101457.22;4934459;29;20241;-92
2023/02/28 12:56:22;;;;;;;11.20;5.65;;;;;;;5.47;41.20;101487.94;4896308;29;20052;-92
2023/02/28 12:59:20;;;;;;;9.57;6.00;;;;;;;5.18;42.55;101472.41;4925871;29;20039;-93
2023/02/28 13:02:42;;;;;;;8.45;7.00;;;;;;;5.37;41.54;101495.88;4931920;29;20060;-94
2023/02/28 13:06:12;;;;;;;8.15;6.28;;;;;;;5.24;41.39;101471.47;4930486;29;20040;-94
2023/02/28 13:09:26;;;;;;;10.60;6.43;;;;;;;5.16;41.49;101442.66;4919146;29;20134;-91
2023/02/28 13:12:39;;;;;;;10.63;5.97;;;;;;;5.18;41.87;101430.41;4913539;29;20062;-94
2023/02/28 13:15:37;;;;;;;9.27;6.28;;;;;;;5.37;41.28;101452.09;4935893;29;20055;-94
2023/02/28 13:18:48;;;;;;;9.02;6.63;;;;;;;5.33;42.03;101473.16;4929203;29;20028;-90
2023/02/28 13:21:44;;;;;;;8.55;6.63;;;;;;;5.12;42.20;101440.94;4922635;29;20062;-93
2023/02/28 13:24:52;;;;;;;8.57;6.47;;;;;;;4.84;42.56;101407.91;4935692;29;20048;-90
2023/02/28 13:27:41;;;;;;;7.50;5.78;;;;;;;5.10;42.73;101445.31;4936149;29;20068;-92
2023/02/28 13:30:59;;;;;;;6.85;5.20;;;;;;;5.45;42.51;101497.56;4923235;29;20080;-94
2023/02/28 13:34:07;;;;;;;8.75;6.43;;;;;;;5.58;42.15;101495.69;4921464;29;20347;-93
2023/02/28 13:40:21;;;;;;;9.90;6.78;;;;;;;5.42;42.36;101475.69;5111367;23;20071;-93
2023/02/28 13:44:05;;;;;;;8.07;6.18;;;;;;;4.79;42.86;101388.69;4868333;29;20550;-94
2023/02/28 13:47:06;;;;;;;7.65;5.68;;;;;;;5.34;41.38;101481.03;4889153;29;20045;-94
2023/02/28 13:50:08;;;;;;;9.77;6.00;;;;;;;4.96;43.15;101451.56;4888281;29;20049;-94
2023/02/28 13:53:46;;;;;;;8.88;6.18;;;;;;;5.26;42.34;101491.59;4892941;29;20059;-95
2023/02/28 13:57:51;;;;;;;;;;;;;;;;;;;;;
2023/02/28 14:01:21;;;;;;;7.82;6.10;;;;;;;5.34;42.24;101488.06;4843623;29;20038;-93
2023/02/28 14:04:41;;;;;;;8.18;6.18;;;;;;;5.39;43.04;101481.84;4848457;29;20062;-96
2023/02/28 14:07:44;;;;;;;8.98;6.90;;;;;;;5.48;42.56;101480.91;4844387;29;20034;-93
2023/02/28 14:10:47;;;;;;;8.85;6.55;;;;;;;5.22;43.22;101421.59;4847019;29;20038;-92
2023/02/28 14:14:00;;;;;;;7.80;5.97;;;;;;;5.16;43.10;101441.78;4940218;28;20047;-93
2023/02/28 14:16:58;;;;;;;10.45;6.80;;;;;;;5.29;43.24;101453.94;4937058;29;20044;-94
2023/02/28 14:20:41;;;;;;;9.82;6.72;;;;;;;5.44;42.51;101477.44;4942535;28;20036;-92
2023/02/28 14:24:09;;;;;;;10.80;6.57;;;;;;;5.31;42.61;101470.56;4937770;29;20036;-93
2023/02/28 14:27:52;;;;;;;9.55;6.30;;;;;;;4.98;43.55;101415.69;4932731;29;20051;-93
2023/02/28 14:31:14;;;;;;;9.25;6.45;;;;;;;5.23;43.36;101460.09;4929300;29;20057;-94
2023/02/28 14:34:23;;;;;;;8.77;6.45;;;;;;;5.25;43.42;101473.22;4938653;29;20032;-92
2023/02/28 14:37:18;;;;;;;8.52;6.32;;;;;;;5.00;43.81;101420.03;4940432;28;20035;-93
2023/02/28 14:40:09;;;;;;;10.80;6.55;;;;;;;5.13;42.86;101412.94;4959844;23;20048;-92